Time;durP1;ratioP1;P1;durP2;ratioP2;P2;SDS_P1;SDS_P2;PMS_P1;PMS_P2;Temp;Humidity;BMP_temperature;BMP_pressure;BME280_temperature;BME280_humidity;BME280_pressure;Samples;Min_cycle;Max_cycle;Signal;HPM_P1;HPM_P2
2022/08/16 00:02:25;;;;;;;12.80;3.42;;;;;;;;;;4996051;28;20029;-73
2022/08/16 00:04:51;;;;;;;12.13;3.38;;;;;;;;;;4995557;28;20387;-73
2022/08/16 00:07:18;;;;;;;11.60;3.33;;;;;;;;;;4995379;28;20026;-75
2022/08/16 00:09:44;;;;;;;9.60;2.92;;;;;;;;;;4997080;28;20406;-73
2022/08/16 00:12:10;;;;;;;8.30;2.40;;;;;;;;;;4997013;28;20352;-73
2022/08/16 00:14:36;;;;;;;9.30;2.78;;;;;;;;;;4993500;28;20098;-73
2022/08/16 00:17:02;;;;;;;8.75;2.13;;;;;;;;;;4997519;28;20405;-73
2022/08/16 00:19:30;;;;;;;8.57;2.50;;;;;;;;;;4994962;28;20058;-74
2022/08/16 00:21:58;;;;;;;8.45;2.42;;;;;;;;;;4997138;28;20028;-74
2022/08/16 00:24:25;;;;;;;6.97;2.20;;;;;;;;;;4993147;28;20117;-73
2022/08/16 00:26:51;;;;;;;8.15;2.28;;;;;;;;;;4997276;28;20053;-73
2022/08/16 00:29:17;;;;;;;11.27;2.25;;;;;;;;;;4995816;28;20113;-73
2022/08/16 00:31:48;;;;;;;6.03;2.10;;;;;;;;;;4992664;28;20394;-74
2022/08/16 00:34:15;;;;;;;9.93;2.40;;;;;;;;;;4995571;28;20467;-73
2022/08/16 00:36:41;;;;;;;9.43;2.72;;;;;;;;;;4994192;28;20605;-73
2022/08/16 00:39:08;;;;;;;10.73;2.22;;;;;;;;;;4994300;28;20034;-73
2022/08/16 00:41:34;;;;;;;6.80;2.10;;;;;;;;;;4992329;28;20030;-73
2022/08/16 00:44:02;;;;;;;9.52;2.95;;;;;;;;;;4997472;28;20029;-73
2022/08/16 00:46:36;;;;;;;11.38;2.90;;;;;;;;;;4996537;28;20061;-73
2022/08/16 00:49:08;;;;;;;10.32;2.65;;;;;;;;;;5001732;28;20026;-73
2022/08/16 00:51:34;;;;;;;10.90;2.40;;;;;;;;;;5002107;28;20129;-73
2022/08/16 00:54:00;;;;;;;11.95;2.70;;;;;;;;;;5002249;28;20030;-73
2022/08/16 00:56:29;;;;;;;12.68;2.83;;;;;;;;;;4999120;28;20608;-74
2022/08/16 00:58:56;;;;;;;12.75;4.13;;;;;;;;;;5003136;28;20028;-73
2022/08/16 01:01:22;;;;;;;13.80;4.47;;;;;;;;;;4980947;28;20498;-73
2022/08/16 01:03:50;;;;;;;10.43;3.80;;;;;;;;;;5003537;28;20021;-73
2022/08/16 01:06:18;;;;;;;10.82;3.47;;;;;;;;;;4999734;28;20556;-73
2022/08/16 01:08:45;;;;;;;13.18;4.07;;;;;;;;;;5002196;28;20022;-73
2022/08/16 01:11:11;;;;;;;16.65;3.55;;;;;;;;;;5001306;28;20018;-73
2022/08/16 01:13:38;;;;;;;15.00;3.63;;;;;;;;;;4999788;28;20072;-73
2022/08/16 01:16:10;;;;;;;13.38;3.38;;;;;;;;;;5001000;28;20026;-74
2022/08/16 01:18:44;;;;;;;16.67;3.35;;;;;;;;;;4996636;28;20471;-73
2022/08/16 01:21:29;;;;;;;13.77;3.95;;;;;;;;;;4998247;28;20034;-73
2022/08/16 01:23:55;;;;;;;18.88;3.67;;;;;;;;;;4999113;28;20042;-73
2022/08/16 01:26:24;;;;;;;13.73;3.55;;;;;;;;;;5002431;28;20041;-75
2022/08/16 01:28:50;;;;;;;12.50;3.80;;;;;;;;;;5000737;28;20056;-74
2022/08/16 01:31:18;;;;;;;17.33;4.20;;;;;;;;;;4995824;28;20017;-74
2022/08/16 01:33:44;;;;;;;20.45;3.40;;;;;;;;;;5001292;28;20022;-72
2022/08/16 01:36:10;;;;;;;12.45;3.53;;;;;;;;;;4975525;28;20556;-73
2022/08/16 01:38:38;;;;;;;13.10;3.70;;;;;;;;;;4999929;28;20036;-73
2022/08/16 01:41:16;;;;;;;10.82;3.33;;;;;;;;;;4995975;28;20546;-73
2022/08/16 01:43:43;;;;;;;9.77;3.10;;;;;;;;;;4994736;28;20038;-73
2022/08/16 01:46:19;;;;;;;15.30;4.30;;;;;;;;;;4997683;28;20041;-72
2022/08/16 01:48:45;;;;;;;20.80;4.35;;;;;;;;;;4999824;28;20347;-74
2022/08/16 01:51:13;;;;;;;15.57;3.97;;;;;;;;;;5005754;28;20235;-73
2022/08/16 01:53:39;;;;;;;21.73;4.00;;;;;;;;;;5004663;28;20019;-73
2022/08/16 01:56:06;;;;;;;13.05;3.72;;;;;;;;;;5002046;28;20057;-74
2022/08/16 01:58:32;;;;;;;15.50;4.28;;;;;;;;;;4999993;28;20434;-73
2022/08/16 02:00:58;;;;;;;17.55;4.25;;;;;;;;;;5007783;28;20069;-74
2022/08/16 02:03:24;;;;;;;18.25;4.65;;;;;;;;;;5001743;28;20022;-74
2022/08/16 02:05:50;;;;;;;14.75;3.85;;;;;;;;;;5002162;28;20292;-73
2022/08/16 02:08:16;;;;;;;12.68;3.92;;;;;;;;;;5005109;28;20033;-73
2022/08/16 02:10:43;;;;;;;16.40;4.38;;;;;;;;;;4999149;28;20573;-73
2022/08/16 02:13:09;;;;;;;14.20;3.63;;;;;;;;;;4997291;28;20028;-74
2022/08/16 02:15:36;;;;;;;10.95;3.20;;;;;;;;;;4999907;28;20044;-74
2022/08/16 02:18:03;;;;;;;14.73;3.90;;;;;;;;;;5001552;28;20029;-74
2022/08/16 02:20:31;;;;;;;23.02;4.35;;;;;;;;;;4998888;28;20080;-73
2022/08/16 02:22:57;;;;;;;11.98;3.53;;;;;;;;;;4999656;28;20069;-73
2022/08/16 02:25:25;;;;;;;13.20;3.90;;;;;;;;;;4985644;28;20049;-73
2022/08/16 02:27:51;;;;;;;13.90;3.85;;;;;;;;;;4999923;28;20509;-73
2022/08/16 02:30:20;;;;;;;13.45;3.30;;;;;;;;;;4996786;28;20359;-73
2022/08/16 02:32:46;;;;;;;14.07;3.58;;;;;;;;;;5001284;28;20179;-74
2022/08/16 02:35:12;;;;;;;16.80;4.10;;;;;;;;;;5001389;28;20470;-74
2022/08/16 02:37:39;;;;;;;12.57;3.03;;;;;;;;;;4993263;28;20026;-74
2022/08/16 02:40:05;;;;;;;12.30;3.40;;;;;;;;;;5000854;28;20132;-74
2022/08/16 02:42:31;;;;;;;18.35;4.22;;;;;;;;;;4993708;28;20022;-72
2022/08/16 02:44:57;;;;;;;14.43;3.88;;;;;;;;;;5003414;28;20096;-73
2022/08/16 02:47:24;;;;;;;17.92;4.10;;;;;;;;;;4997494;28;20037;-72
2022/08/16 02:49:50;;;;;;;17.75;4.03;;;;;;;;;;4999586;28;20018;-73
2022/08/16 02:52:16;;;;;;;14.60;4.43;;;;;;;;;;4983344;28;20034;-74
2022/08/16 02:54:42;;;;;;;12.77;3.50;;;;;;;;;;4991631;28;20022;-73
2022/08/16 02:57:09;;;;;;;15.38;3.55;;;;;;;;;;5003007;28;20033;-73
2022/08/16 02:59:35;;;;;;;12.93;3.80;;;;;;;;;;4995001;28;20132;-73
2022/08/16 03:02:01;;;;;;;14.48;3.50;;;;;;;;;;5001089;28;20088;-73
2022/08/16 03:04:27;;;;;;;18.00;3.85;;;;;;;;;;5002548;28;20353;-73
2022/08/16 03:06:54;;;;;;;14.90;4.07;;;;;;;;;;4998764;28;20061;-73
2022/08/16 03:09:20;;;;;;;16.05;4.72;;;;;;;;;;5000562;28;20029;-73
2022/08/16 03:11:46;;;;;;;15.98;4.55;;;;;;;;;;5003679;28;20040;-73
2022/08/16 03:14:12;;;;;;;19.25;4.57;;;;;;;;;;5001114;28;20203;-73
2022/08/16 03:16:38;;;;;;;13.77;3.92;;;;;;;;;;4999930;28;20526;-74
2022/08/16 03:19:05;;;;;;;17.17;4.07;;;;;;;;;;4997243;28;20413;-73
2022/08/16 03:21:31;;;;;;;16.02;4.43;;;;;;;;;;4999281;28;20455;-73
2022/08/16 03:23:58;;;;;;;18.17;4.45;;;;;;;;;;4997524;28;20297;-73
2022/08/16 03:26:24;;;;;;;14.68;3.47;;;;;;;;;;5001499;28;20088;-74
2022/08/16 03:28:50;;;;;;;12.05;3.88;;;;;;;;;;4999469;28;20022;-75
2022/08/16 03:31:17;;;;;;;13.60;3.60;;;;;;;;;;4997020;28;20041;-74
2022/08/16 03:33:43;;;;;;;17.55;5.22;;;;;;;;;;4992646;28;20026;-73
2022/08/16 03:36:09;;;;;;;13.60;4.35;;;;;;;;;;4994202;28;20026;-73
2022/08/16 03:38:36;;;;;;;13.15;3.92;;;;;;;;;;4994320;28;20543;-73
2022/08/16 03:41:04;;;;;;;9.90;3.80;;;;;;;;;;5002808;28;20044;-74
2022/08/16 03:43:30;;;;;;;21.88;4.95;;;;;;;;;;4998043;28;20402;-73
2022/08/16 03:45:56;;;;;;;15.05;4.15;;;;;;;;;;4994571;28;20034;-73
2022/08/16 03:48:23;;;;;;;17.58;4.50;;;;;;;;;;4996229;28;20470;-73
2022/08/16 03:50:50;;;;;;;15.68;4.75;;;;;;;;;;4996581;28;20088;-73
2022/08/16 03:53:16;;;;;;;13.57;4.10;;;;;;;;;;4996975;28;20053;-74
2022/08/16 03:55:42;;;;;;;15.00;4.20;;;;;;;;;;4999657;28;20018;-74
2022/08/16 03:58:08;;;;;;;13.00;4.15;;;;;;;;;;4998552;28;20021;-73
2022/08/16 04:00:34;;;;;;;17.20;4.43;;;;;;;;;;4994976;28;20048;-73
2022/08/16 04:03:05;;;;;;;11.35;3.88;;;;;;;;;;4990325;28;20026;-75
2022/08/16 04:05:32;;;;;;;14.88;4.15;;;;;;;;;;4974910;28;20038;-75
2022/08/16 04:07:58;;;;;;;16.13;4.38;;;;;;;;;;4995893;28;20057;-74
2022/08/16 04:10:25;;;;;;;14.48;4.00;;;;;;;;;;4993547;28;20018;-74
2022/08/16 04:12:51;;;;;;;20.42;4.05;;;;;;;;;;4994087;28;20029;-74
2022/08/16 04:15:17;;;;;;;17.88;4.68;;;;;;;;;;4990932;28;20313;-74
2022/08/16 04:17:43;;;;;;;14.32;3.67;;;;;;;;;;4991944;28;20034;-73
2022/08/16 04:20:12;;;;;;;14.85;4.70;;;;;;;;;;4996672;28;20042;-74
2022/08/16 04:22:38;;;;;;;17.05;4.57;;;;;;;;;;4979158;28;20092;-74
2022/08/16 04:25:05;;;;;;;15.50;4.22;;;;;;;;;;4995064;28;20038;-73
2022/08/16 04:27:31;;;;;;;14.95;3.92;;;;;;;;;;4994376;28;20375;-74
2022/08/16 04:29:58;;;;;;;20.55;5.00;;;;;;;;;;4993766;28;20034;-74
2022/08/16 04:32:24;;;;;;;17.15;4.57;;;;;;;;;;4992135;28;20109;-74
2022/08/16 04:34:50;;;;;;;14.35;4.38;;;;;;;;;;4991737;28;20416;-74
2022/08/16 04:37:16;;;;;;;16.55;4.15;;;;;;;;;;4995117;28;20040;-74
2022/08/16 04:39:43;;;;;;;17.52;4.40;;;;;;;;;;4992297;28;20224;-74
2022/08/16 04:42:09;;;;;;;17.55;4.03;;;;;;;;;;4998173;28;20026;-73
2022/08/16 04:44:35;;;;;;;15.15;3.72;;;;;;;;;;4994367;28;20026;-74
2022/08/16 04:47:01;;;;;;;17.48;3.90;;;;;;;;;;4994942;28;20073;-74
2022/08/16 04:49:27;;;;;;;12.15;3.40;;;;;;;;;;4996904;28;20017;-74
2022/08/16 04:51:53;;;;;;;15.10;4.00;;;;;;;;;;4998093;28;20484;-74
2022/08/16 04:54:20;;;;;;;19.92;4.68;;;;;;;;;;4996716;28;20033;-74
2022/08/16 04:56:46;;;;;;;12.93;3.78;;;;;;;;;;4998434;28;20318;-73
2022/08/16 04:59:12;;;;;;;18.27;4.68;;;;;;;;;;4995923;28;20026;-74
2022/08/16 05:01:38;;;;;;;15.13;4.35;;;;;;;;;;5000164;28;20084;-73
2022/08/16 05:04:04;;;;;;;18.40;4.85;;;;;;;;;;4998562;28;20038;-74
2022/08/16 05:06:31;;;;;;;18.83;4.47;;;;;;;;;;4981379;28;20052;-74
2022/08/16 05:08:57;;;;;;;16.50;4.38;;;;;;;;;;4996535;28;20018;-74
2022/08/16 05:11:25;;;;;;;21.02;4.55;;;;;;;;;;4993187;28;20025;-73
2022/08/16 05:13:52;;;;;;;15.15;3.85;;;;;;;;;;4995889;28;20018;-74
2022/08/16 05:16:20;;;;;;;15.95;4.50;;;;;;;;;;4994807;28;20052;-74
2022/08/16 05:18:47;;;;;;;14.40;4.03;;;;;;;;;;4997963;28;20072;-73
2022/08/16 05:21:13;;;;;;;10.07;3.83;;;;;;;;;;4997818;28;20418;-74
2022/08/16 05:23:40;;;;;;;15.38;3.90;;;;;;;;;;4998055;28;20901;-76
2022/08/16 05:26:06;;;;;;;13.43;3.65;;;;;;;;;;4995095;28;20030;-75
2022/08/16 05:28:32;;;;;;;19.27;4.70;;;;;;;;;;4998618;28;20474;-75
2022/08/16 05:30:58;;;;;;;16.15;3.83;;;;;;;;;;4998443;28;20482;-75
2022/08/16 05:33:25;;;;;;;14.55;3.78;;;;;;;;;;4998591;28;20025;-73
2022/08/16 05:35:51;;;;;;;13.35;4.38;;;;;;;;;;4995314;28;20059;-75
2022/08/16 05:38:18;;;;;;;15.98;4.03;;;;;;;;;;4994924;28;20021;-74
2022/08/16 05:40:44;;;;;;;14.25;3.75;;;;;;;;;;4987935;28;20481;-75
2022/08/16 05:43:10;;;;;;;14.40;3.47;;;;;;;;;;4997813;28;20022;-75
2022/08/16 05:45:36;;;;;;;11.70;3.50;;;;;;;;;;4991317;28;20018;-75
2022/08/16 05:48:03;;;;;;;8.25;3.25;;;;;;;;;;4995705;28;20034;-74
2022/08/16 05:50:29;;;;;;;12.63;2.70;;;;;;;;;;4996227;28;20049;-74
2022/08/16 05:52:55;;;;;;;8.07;3.47;;;;;;;;;;4992955;28;20621;-74
2022/08/16 05:55:21;;;;;;;9.65;3.13;;;;;;;;;;4993939;28;20451;-75
2022/08/16 05:57:47;;;;;;;19.35;3.63;;;;;;;;;;4991845;28;20025;-74
2022/08/16 06:00:14;;;;;;;11.93;3.53;;;;;;;;;;4995275;28;20052;-74
2022/08/16 06:02:43;;;;;;;12.75;3.90;;;;;;;;;;4992605;28;20271;-73
2022/08/16 06:05:10;;;;;;;13.13;3.47;;;;;;;;;;4994384;28;20025;-75
2022/08/16 06:07:36;;;;;;;12.98;4.45;;;;;;;;;;4993312;28;20419;-75
2022/08/16 06:10:03;;;;;;;12.07;4.60;;;;;;;;;;4991841;28;20038;-74
2022/08/16 06:12:30;;;;;;;14.27;4.15;;;;;;;;;;4992269;28;20332;-77
2022/08/16 06:15:01;;;;;;;15.80;4.90;;;;;;;;;;4987465;28;20055;-77
2022/08/16 06:17:28;;;;;;;18.90;5.10;;;;;;;;;;4996383;28;20028;-75
2022/08/16 06:19:54;;;;;;;15.77;5.53;;;;;;;;;;4990617;28;20042;-74
2022/08/16 06:22:20;;;;;;;14.45;5.35;;;;;;;;;;4996733;28;20022;-75
2022/08/16 06:24:46;;;;;;;12.65;5.28;;;;;;;;;;4989556;28;20072;-75
2022/08/16 06:27:12;;;;;;;12.52;4.88;;;;;;;;;;4991999;28;20049;-75
2022/08/16 06:29:39;;;;;;;25.02;5.15;;;;;;;;;;4997058;28;20025;-74
2022/08/16 06:32:05;;;;;;;13.75;5.50;;;;;;;;;;4992572;28;20402;-75
2022/08/16 06:34:32;;;;;;;16.77;4.65;;;;;;;;;;4993000;28;20470;-75
2022/08/16 06:36:58;;;;;;;19.02;5.50;;;;;;;;;;4998203;28;20498;-77
2022/08/16 06:39:24;;;;;;;19.77;5.93;;;;;;;;;;4991860;28;20465;-79
2022/08/16 06:41:50;;;;;;;17.88;6.03;;;;;;;;;;4991767;28;20034;-74
2022/08/16 06:44:17;;;;;;;16.70;5.85;;;;;;;;;;4990396;28;20465;-75
2022/08/16 06:46:43;;;;;;;14.13;5.55;;;;;;;;;;4995398;28;20445;-77
2022/08/16 06:49:11;;;;;;;22.55;6.15;;;;;;;;;;4991376;28;20100;-78
2022/08/16 06:51:37;;;;;;;13.60;5.15;;;;;;;;;;4978642;28;20026;-75
2022/08/16 06:54:04;;;;;;;10.45;5.00;;;;;;;;;;4994271;28;20103;-75
2022/08/16 06:56:30;;;;;;;14.20;5.35;;;;;;;;;;4998871;28;20018;-75
2022/08/16 06:58:57;;;;;;;15.43;5.40;;;;;;;;;;4997293;28;20049;-76
2022/08/16 07:01:23;;;;;;;11.88;4.97;;;;;;;;;;4996971;28;20125;-76
2022/08/16 07:03:50;;;;;;;11.43;5.20;;;;;;;;;;4999928;28;20030;-76
2022/08/16 07:06:18;;;;;;;13.90;5.18;;;;;;;;;;4995657;28;20033;-76
2022/08/16 07:08:45;;;;;;;15.32;5.68;;;;;;;;;;5000180;28;20378;-76
2022/08/16 07:11:11;;;;;;;14.98;5.55;;;;;;;;;;4999875;28;20034;-76
2022/08/16 07:13:38;;;;;;;15.15;5.57;;;;;;;;;;4999576;28;20110;-76
2022/08/16 07:16:05;;;;;;;17.30;5.90;;;;;;;;;;4997587;28;20026;-76
2022/08/16 07:18:32;;;;;;;19.58;5.70;;;;;;;;;;4996667;28;20113;-76
2022/08/16 07:20:58;;;;;;;12.93;5.30;;;;;;;;;;5001086;28;20066;-76
2022/08/16 07:23:25;;;;;;;14.07;5.43;;;;;;;;;;4998871;28;20022;-77
2022/08/16 07:25:51;;;;;;;11.85;5.20;;;;;;;;;;4996808;28;20060;-76
2022/08/16 07:28:18;;;;;;;15.57;4.72;;;;;;;;;;5002279;28;20022;-76
2022/08/16 07:30:46;;;;;;;13.75;5.30;;;;;;;;;;5000255;28;20034;-76
2022/08/16 07:33:13;;;;;;;10.05;4.80;;;;;;;;;;4996347;28;20112;-76
2022/08/16 07:35:39;;;;;;;11.60;5.25;;;;;;;;;;4992208;28;20023;-76
2022/08/16 07:38:06;;;;;;;11.63;5.30;;;;;;;;;;4991782;28;20562;-77
2022/08/16 07:40:33;;;;;;;12.52;5.07;;;;;;;;;;4993093;28;20061;-76
2022/08/16 07:42:59;;;;;;;14.60;6.45;;;;;;;;;;4989069;28;20032;-77
2022/08/16 07:45:25;;;;;;;13.85;5.53;;;;;;;;;;4998272;28;20033;-77
2022/08/16 07:47:51;;;;;;;19.63;5.28;;;;;;;;;;4997096;28;20026;-76
2022/08/16 07:50:18;;;;;;;12.98;5.65;;;;;;;;;;4995869;28;20117;-77
2022/08/16 07:52:44;;;;;;;9.88;4.88;;;;;;;;;;4993579;28;20023;-77
2022/08/16 07:55:12;;;;;;;21.42;6.28;;;;;;;;;;4996693;28;20026;-78
2022/08/16 07:57:39;;;;;;;13.10;4.78;;;;;;;;;;4999894;28;20025;-79
2022/08/16 08:00:05;;;;;;;17.05;5.15;;;;;;;;;;4977199;28;20383;-80
2022/08/16 08:02:32;;;;;;;15.95;5.10;;;;;;;;;;4986426;28;20442;-79
2022/08/16 08:04:58;;;;;;;12.70;4.65;;;;;;;;;;4989971;28;20790;-79
2022/08/16 08:07:24;;;;;;;15.65;5.50;;;;;;;;;;4991446;28;20026;-79
2022/08/16 08:09:51;;;;;;;10.20;4.80;;;;;;;;;;4995540;28;20120;-80
2022/08/16 08:12:20;;;;;;;9.82;4.40;;;;;;;;;;4984510;28;20046;-80
2022/08/16 08:14:47;;;;;;;12.55;5.20;;;;;;;;;;4995214;28;20030;-79
2022/08/16 08:17:14;;;;;;;13.30;5.20;;;;;;;;;;4998017;28;20030;-79
2022/08/16 08:19:40;;;;;;;9.52;5.25;;;;;;;;;;4996879;28;20045;-80
2022/08/16 08:22:08;;;;;;;11.82;5.05;;;;;;;;;;4988655;28;20141;-80
2022/08/16 08:24:37;;;;;;;11.98;4.65;;;;;;;;;;4990878;28;20036;-80
2022/08/16 08:27:04;;;;;;;11.55;4.85;;;;;;;;;;4989275;28;20062;-80
2022/08/16 08:29:32;;;;;;;15.52;5.00;;;;;;;;;;4991927;28;20022;-80
2022/08/16 08:31:59;;;;;;;10.23;4.72;;;;;;;;;;4990735;28;20022;-80
2022/08/16 08:34:26;;;;;;;13.75;4.43;;;;;;;;;;4989444;28;20030;-81
2022/08/16 08:36:53;;;;;;;19.45;5.72;;;;;;;;;;4988773;28;20393;-79
2022/08/16 08:39:19;;;;;;;16.52;5.78;;;;;;;;;;4986830;28;20032;-77
2022/08/16 08:41:46;;;;;;;12.80;5.03;;;;;;;;;;4992345;28;20037;-77
2022/08/16 08:44:13;;;;;;;14.48;5.50;;;;;;;;;;4989677;28;20050;-76
2022/08/16 08:46:39;;;;;;;11.20;5.07;;;;;;;;;;4991365;28;20062;-77
2022/08/16 08:49:07;;;;;;;11.10;5.20;;;;;;;;;;4991871;28;20026;-77
2022/08/16 08:51:34;;;;;;;14.52;5.53;;;;;;;;;;4993523;28;20020;-76
2022/08/16 08:54:00;;;;;;;18.20;6.50;;;;;;;;;;4994640;28;20029;-76
2022/08/16 08:56:29;;;;;;;11.77;6.13;;;;;;;;;;4995996;28;20018;-77
2022/08/16 08:58:55;;;;;;;10.30;5.18;;;;;;;;;;4995314;28;20029;-77
2022/08/16 09:01:25;;;;;;;10.43;5.05;;;;;;;;;;4992143;28;20153;-78
2022/08/16 09:03:51;;;;;;;14.60;5.00;;;;;;;;;;4991638;28;20470;-77
2022/08/16 09:06:18;;;;;;;18.48;5.20;;;;;;;;;;4993331;28;20390;-77
2022/08/16 09:08:44;;;;;;;11.68;5.07;;;;;;;;;;4993676;28;20147;-77
2022/08/16 09:11:10;;;;;;;16.40;5.65;;;;;;;;;;4995839;28;20396;-77
2022/08/16 09:13:38;;;;;;;12.00;5.45;;;;;;;;;;4995526;28;20512;-78
2022/08/16 09:16:04;;;;;;;11.93;4.70;;;;;;;;;;4994889;28;20030;-87
2022/08/16 09:18:31;;;;;;;12.65;4.82;;;;;;;;;;4994958;28;20586;-77
2022/08/16 09:20:58;;;;;;;13.57;5.40;;;;;;;;;;4995291;28;20525;-77
2022/08/16 09:23:25;;;;;;;13.73;5.10;;;;;;;;;;4994219;28;20647;-76
2022/08/16 09:25:51;;;;;;;11.23;4.82;;;;;;;;;;4993784;28;20044;-76
2022/08/16 09:28:17;;;;;;;12.98;5.10;;;;;;;;;;4995767;28;20018;-77
2022/08/16 09:30:44;;;;;;;17.17;4.78;;;;;;;;;;4996855;28;20325;-77
2022/08/16 09:33:10;;;;;;;11.98;4.93;;;;;;;;;;4998950;28;20779;-77
2022/08/16 09:35:37;;;;;;;12.75;5.28;;;;;;;;;;4989382;28;20513;-78
2022/08/16 09:38:04;;;;;;;11.25;5.10;;;;;;;;;;4996360;28;20724;-76
2022/08/16 09:40:31;;;;;;;15.27;5.38;;;;;;;;;;4998119;28;20488;-77
2022/08/16 09:42:58;;;;;;;16.95;4.93;;;;;;;;;;4993467;28;20029;-76
2022/08/16 09:45:27;;;;;;;14.88;5.35;;;;;;;;;;4994334;28;20053;-77
2022/08/16 09:47:53;;;;;;;12.07;4.80;;;;;;;;;;4989183;28;20097;-77
2022/08/16 09:50:20;;;;;;;20.05;4.90;;;;;;;;;;4978377;28;20593;-77
2022/08/16 09:52:46;;;;;;;18.63;5.13;;;;;;;;;;4992055;28;20430;-77
2022/08/16 09:55:13;;;;;;;15.30;5.07;;;;;;;;;;4996245;28;20025;-77
2022/08/16 09:57:40;;;;;;;26.05;5.28;;;;;;;;;;4999023;28;20093;-78
2022/08/16 10:00:09;;;;;;;18.50;4.47;;;;;;;;;;4995949;28;20034;-77
2022/08/16 10:02:35;;;;;;;13.35;3.95;;;;;;;;;;4993431;28;20017;-77
2022/08/16 10:05:01;;;;;;;12.60;4.15;;;;;;;;;;4996783;28;20023;-77
2022/08/16 10:07:29;;;;;;;15.85;4.47;;;;;;;;;;4990406;28;20381;-78
2022/08/16 10:09:55;;;;;;;14.23;4.57;;;;;;;;;;4997521;28;20026;-78
2022/08/16 10:15:07;;;;;;;20.08;5.50;;;;;;;;;;4992856;28;20045;-77
2022/08/16 10:17:34;;;;;;;16.58;4.45;;;;;;;;;;4988935;28;20546;-77
2022/08/16 10:20:00;;;;;;;17.35;4.75;;;;;;;;;;4990581;28;20106;-77
2022/08/16 10:22:26;;;;;;;17.95;4.55;;;;;;;;;;4995199;28;20177;-78
2022/08/16 10:24:53;;;;;;;21.58;4.65;;;;;;;;;;4989969;28;20414;-77
2022/08/16 10:27:19;;;;;;;15.45;5.05;;;;;;;;;;4992749;28;20044;-77
2022/08/16 10:29:46;;;;;;;13.65;4.75;;;;;;;;;;4985836;28;20033;-77
2022/08/16 10:32:12;;;;;;;16.75;4.20;;;;;;;;;;4999306;28;20028;-77
2022/08/16 10:34:38;;;;;;;13.20;4.35;;;;;;;;;;4992211;28;20081;-77
2022/08/16 10:37:04;;;;;;;17.45;5.03;;;;;;;;;;4993862;28;20101;-77
2022/08/16 10:39:31;;;;;;;11.35;4.00;;;;;;;;;;4990641;28;20053;-77
2022/08/16 10:41:57;;;;;;;12.93;4.22;;;;;;;;;;5000334;28;20038;-77
2022/08/16 10:44:23;;;;;;;15.23;4.63;;;;;;;;;;4994891;28;20022;-77
2022/08/16 10:46:49;;;;;;;16.30;4.47;;;;;;;;;;4992850;28;20217;-77
2022/08/16 10:49:16;;;;;;;15.80;4.47;;;;;;;;;;4990419;28;20030;-77
2022/08/16 10:51:42;;;;;;;17.63;4.38;;;;;;;;;;4993328;28;20026;-77
2022/08/16 10:54:08;;;;;;;16.13;4.95;;;;;;;;;;4999848;28;20658;-77
2022/08/16 10:56:34;;;;;;;19.88;5.60;;;;;;;;;;4992210;28;20018;-76
2022/08/16 10:59:00;;;;;;;12.73;4.63;;;;;;;;;;4994512;28;20026;-75
2022/08/16 11:01:27;;;;;;;11.75;4.68;;;;;;;;;;4989637;28;20078;-75
2022/08/16 11:03:53;;;;;;;12.23;4.93;;;;;;;;;;4994868;28;20030;-75
2022/08/16 11:06:20;;;;;;;12.00;4.80;;;;;;;;;;4992803;28;20022;-75
2022/08/16 11:08:46;;;;;;;18.10;6.60;;;;;;;;;;4991503;28;20018;-75
2022/08/16 11:11:14;;;;;;;17.67;5.40;;;;;;;;;;4991955;28;20033;-75
2022/08/16 11:13:41;;;;;;;13.05;4.35;;;;;;;;;;4991659;28;20018;-74
2022/08/16 11:16:07;;;;;;;16.85;5.18;;;;;;;;;;4992947;28;20112;-75
2022/08/16 11:18:34;;;;;;;13.10;5.78;;;;;;;;;;4988918;28;20403;-75
2022/08/16 11:21:00;;;;;;;15.07;5.00;;;;;;;;;;4980742;28;20513;-75
2022/08/16 11:23:27;;;;;;;14.77;4.93;;;;;;;;;;4991061;28;20038;-75
2022/08/16 11:25:55;;;;;;;16.33;5.25;;;;;;;;;;4991674;28;20060;-75
2022/08/16 11:28:21;;;;;;;12.95;4.88;;;;;;;;;;4992059;28;20027;-74
2022/08/16 11:30:48;;;;;;;9.52;5.07;;;;;;;;;;4992130;28;20026;-76
2022/08/16 11:33:14;;;;;;;19.70;6.45;;;;;;;;;;4994727;28;20137;-76
2022/08/16 11:35:41;;;;;;;15.60;4.65;;;;;;;;;;4990537;28;20514;-75
2022/08/16 11:38:13;;;;;;;14.90;5.00;;;;;;;;;;4992009;28;20034;-75
2022/08/16 11:40:51;;;;;;;16.42;5.18;;;;;;;;;;4981393;28;20379;-77
2022/08/16 11:43:22;;;;;;;16.30;5.32;;;;;;;;;;4992761;28;20022;-76
2022/08/16 11:45:49;;;;;;;15.30;4.93;;;;;;;;;;4999993;28;20018;-75
2022/08/16 11:48:16;;;;;;;13.52;4.93;;;;;;;;;;4993385;28;20100;-75
2022/08/16 11:50:43;;;;;;;12.15;5.15;;;;;;;;;;4996605;28;20015;-76
2022/08/16 11:53:10;;;;;;;13.55;5.82;;;;;;;;;;4998090;28;20332;-77
2022/08/16 11:55:37;;;;;;;22.20;6.07;;;;;;;;;;4984563;28;20033;-75
2022/08/16 11:58:03;;;;;;;13.48;6.00;;;;;;;;;;4998277;28;20658;-76
2022/08/16 12:00:30;;;;;;;12.18;5.60;;;;;;;;;;4998899;28;20471;-76
2022/08/16 12:02:56;;;;;;;21.80;7.13;;;;;;;;;;4996574;28;20278;-76
2022/08/16 12:05:23;;;;;;;15.63;5.80;;;;;;;;;;4990633;28;20034;-76
2022/08/16 12:07:49;;;;;;;13.57;5.47;;;;;;;;;;4994106;28;20061;-77
2022/08/16 12:10:17;;;;;;;13.35;5.25;;;;;;;;;;4993345;28;20022;-77
2022/08/16 12:12:44;;;;;;;15.70;4.97;;;;;;;;;;4993905;28;20629;-77
2022/08/16 12:15:11;;;;;;;15.30;5.40;;;;;;;;;;4995262;28;20022;-76
2022/08/16 12:17:38;;;;;;;16.60;5.78;;;;;;;;;;4996077;28;20081;-77
2022/08/16 12:20:08;;;;;;;14.88;5.78;;;;;;;;;;4993218;28;20573;-76
2022/08/16 12:22:34;;;;;;;15.27;6.03;;;;;;;;;;4993497;28;20631;-76
2022/08/16 12:25:00;;;;;;;14.45;5.32;;;;;;;;;;4989063;28;20027;-77
2022/08/16 12:27:28;;;;;;;16.77;5.78;;;;;;;;;;4992361;28;20068;-76
2022/08/16 12:29:54;;;;;;;18.92;5.90;;;;;;;;;;4997947;28;20168;-76
2022/08/16 12:32:21;;;;;;;15.45;5.65;;;;;;;;;;4995920;28;20647;-77
2022/08/16 12:34:48;;;;;;;12.38;5.43;;;;;;;;;;4992270;28;20053;-76
2022/08/16 12:37:15;;;;;;;14.95;6.40;;;;;;;;;;4991315;28;20113;-76
2022/08/16 12:39:41;;;;;;;12.20;5.53;;;;;;;;;;4988780;28;20081;-76
2022/08/16 12:42:08;;;;;;;12.85;5.75;;;;;;;;;;4990408;28;20022;-76
2022/08/16 12:44:35;;;;;;;13.43;5.88;;;;;;;;;;4986730;28;20121;-76
2022/08/16 12:49:47;;;;;;;15.57;6.18;;;;;;;;;;4987693;28;20033;-76
2022/08/16 12:52:13;;;;;;;12.93;5.85;;;;;;;;;;4990798;28;20102;-76
2022/08/16 12:54:40;;;;;;;14.75;6.15;;;;;;;;;;4988276;28;20018;-77
2022/08/16 12:57:07;;;;;;;9.60;5.25;;;;;;;;;;4990604;28;20034;-77
2022/08/16 12:59:34;;;;;;;11.00;5.45;;;;;;;;;;4987537;28;20165;-76
2022/08/16 13:02:00;;;;;;;16.23;5.95;;;;;;;;;;4989623;28;20076;-76
2022/08/16 13:04:27;;;;;;;12.27;5.47;;;;;;;;;;4990995;28;20347;-76
2022/08/16 13:06:54;;;;;;;11.98;5.40;;;;;;;;;;4990000;28;20022;-76
2022/08/16 13:09:23;;;;;;;31.15;7.03;;;;;;;;;;4993154;28;20018;-76
2022/08/16 13:11:58;;;;;;;13.50;5.38;;;;;;;;;;4990309;28;20019;-76
2022/08/16 13:14:26;;;;;;;16.50;6.07;;;;;;;;;;4992324;28;20029;-76
2022/08/16 13:16:52;;;;;;;21.10;6.03;;;;;;;;;;4989363;28;20022;-76
2022/08/16 13:19:19;;;;;;;15.63;5.75;;;;;;;;;;4991106;28;20141;-75
2022/08/16 13:21:45;;;;;;;12.52;5.50;;;;;;;;;;4987871;28;20105;-76
2022/08/16 13:24:11;;;;;;;16.83;5.93;;;;;;;;;;4991897;28;20022;-76
2022/08/16 13:26:37;;;;;;;14.75;5.75;;;;;;;;;;4990561;28;20068;-76
2022/08/16 13:29:03;;;;;;;13.23;5.13;;;;;;;;;;4988171;28;20026;-75
2022/08/16 13:31:29;;;;;;;13.30;5.35;;;;;;;;;;4992332;28;20049;-76
2022/08/16 13:33:56;;;;;;;14.43;5.88;;;;;;;;;;4993709;28;20126;-76
2022/08/16 13:36:22;;;;;;;16.35;6.30;;;;;;;;;;4988936;28;20026;-77
2022/08/16 13:38:48;;;;;;;8.90;5.43;;;;;;;;;;4992515;28;20018;-77
2022/08/16 13:41:14;;;;;;;12.95;5.57;;;;;;;;;;4972304;28;20039;-77
2022/08/16 13:43:41;;;;;;;8.65;5.05;;;;;;;;;;4996933;28;20364;-76
2022/08/16 13:46:07;;;;;;;12.20;5.35;;;;;;;;;;4985887;28;20034;-76
2022/08/16 13:48:35;;;;;;;15.10;6.15;;;;;;;;;;4991512;28;20435;-76
2022/08/16 13:51:01;;;;;;;11.60;5.00;;;;;;;;;;4989662;28;20145;-76
2022/08/16 13:53:28;;;;;;;14.07;5.80;;;;;;;;;;4989611;28;20018;-76
2022/08/16 13:55:54;;;;;;;10.57;5.40;;;;;;;;;;4987463;28;20030;-76
2022/08/16 13:58:21;;;;;;;13.35;5.30;;;;;;;;;;4987275;28;20029;-77
2022/08/16 14:00:47;;;;;;;12.27;5.63;;;;;;;;;;4991370;28;20093;-77
2022/08/16 14:03:14;;;;;;;10.80;5.65;;;;;;;;;;4992838;28;20022;-76
2022/08/16 14:05:40;;;;;;;14.77;5.45;;;;;;;;;;4997250;28;20029;-76
2022/08/16 14:08:06;;;;;;;11.23;5.50;;;;;;;;;;4994072;28;20065;-76
2022/08/16 14:10:33;;;;;;;12.57;5.68;;;;;;;;;;4996809;28;20029;-76
2022/08/16 14:13:00;;;;;;;14.98;5.68;;;;;;;;;;4997861;28;20209;-76
2022/08/16 14:15:27;;;;;;;13.27;5.07;;;;;;;;;;4994151;28;20185;-76
2022/08/16 14:17:53;;;;;;;11.73;5.20;;;;;;;;;;4997242;28;20529;-76
2022/08/16 14:20:19;;;;;;;12.88;5.45;;;;;;;;;;4995500;28;20050;-76
2022/08/16 14:22:45;;;;;;;13.68;5.57;;;;;;;;;;4997911;28;20509;-76
2022/08/16 14:25:13;;;;;;;16.42;5.72;;;;;;;;;;4992861;28;20217;-77
2022/08/16 14:27:40;;;;;;;12.70;5.50;;;;;;;;;;4998038;28;20051;-76
2022/08/16 14:30:07;;;;;;;16.52;5.90;;;;;;;;;;4994629;28;20030;-77
2022/08/16 14:32:33;;;;;;;13.07;5.63;;;;;;;;;;4997966;28;20033;-77
2022/08/16 14:35:00;;;;;;;13.07;5.72;;;;;;;;;;4999554;28;20103;-76